Airfield :
LOGIN :

Register | Disclaimer

   EN    FR    IT 

 










Legend :    VFR   Marginal VFR   IFR   Intensive IFR   Very Intensive IFR
Visi :
Ceiling :
>= 8 km
>= 3000ft
5 to 8 km
1000 to 3000 ft
1500m to 5 km
500 to 1000 ft
800 to 1500m
200 to 500 ft
< 800m
< 200 ft
Symbols :   Thunderstorms  Fog  Heavy snow  Heavy precipitations  Wind > 20 kt
SIGMETs :     Misc.  Thunderstorms  Icing  Turbulence  Mountain Waves  Volcanic Ashes







- Airport Elevation : 326 ft
- IATA code : LCG
- Download approach charts


LECO - A Coruna

CURRENT METAR :
  • 220330Z 19004KT 170V230 0150 R21/0900U R03/1600U FG BKN001 16/16 Q1022 TEMPO 0800 VCFG

EXPIRED METARs :
  • 220300Z AUTO 19003KT 0200 0100 R21/0600N R03/0600N FG VV001 16/16 Q1022
  • 220230Z AUTO 21002KT 0250 0100 R21/0700N R03/0550N FG OVC001/// 16/16 Q1022
  • 220200Z AUTO 17003KT 0300 0150SW R21/0750D R03/0450N FG VV001 17/17 Q1022
  • 220130Z AUTO VRB02KT 0350 0100 R21/0700D R03/0400N FG VV001 17/17 Q1022
  • 220100Z AUTO 18004KT 2000 0100SW R03/0350N BR BCFG OVC001/// 17/17 Q1022

TAF TAF LECO
Valid from the 22 at 03:00 until the 23 at 03:00 UTC


220200Z 2203/2303 VRB05KT 2500 BR BCFG BKN003 TX24/2214Z TN15/2205Z
TEMPO 2203/2208 0600 FG BKN001
PROB40
TEMPO 2203/2207 0150 FG VV001
PROB30
TEMPO 2205/2207 6000 NSW SCT002
BECMG 2207/2209 CAVOK
BECMG 2219/2221 3000 BR BCFG BKN003
PROB40
TEMPO 2220/2303 0600 FG BKN001
No reported NOTAMs for that airfield.



MET'MAP, your aeronautical weather chart ! - Copyright ORBIFLY December 2007 - Disclaimer

ORBIFLY MET'MAP TEAM :

Programming & Development : Alexandra Zaïnal
Concept & Development : Baudouin d'Aumeries
Co-Development & Prog : Marc-Olivier Méhu
Technical & hardware support : Manuel Goepfert

Contact : metmap@orbifly.com




SOURCES & CREDITS :

   NOAA